Time;durP1;ratioP1;P1;durP2;ratioP2;P2;SDS_P1;SDS_P2;PMS_P1;PMS_P2;Temp;Humidity;BMP_temperature;BMP_pressure;BME280_temperature;BME280_humidity;BME280_pressure;Samples;Min_cycle;Max_cycle;Signal;HPM_P1;HPM_P2
2022/01/07 00:01:25;;;;;;;12.95;1.48;;;;;;;;;;4994960;28;20636;-74
2022/01/07 00:03:51;;;;;;;15.23;1.50;;;;;;;;;;5003437;28;20045;-73
2022/01/07 00:06:17;;;;;;;24.48;2.63;;;;;;;;;;5005669;28;20471;-74
2022/01/07 00:08:43;;;;;;;12.05;2.20;;;;;;;;;;4988924;28;20419;-73
2022/01/07 00:11:09;;;;;;;5.23;1.50;;;;;;;;;;5011626;28;20040;-73
2022/01/07 00:13:35;;;;;;;12.27;2.33;;;;;;;;;;4994509;28;20033;-73
2022/01/07 00:16:00;;;;;;;17.90;1.70;;;;;;;;;;4995999;28;20034;-73
2022/01/07 00:18:26;;;;;;;18.47;2.10;;;;;;;;;;4983758;28;20039;-72
2022/01/07 00:20:52;;;;;;;25.00;2.67;;;;;;;;;;4980463;28;20061;-71
2022/01/07 00:23:17;;;;;;;20.25;2.17;;;;;;;;;;5005435;28;20062;-71
2022/01/07 00:25:43;;;;;;;14.83;2.73;;;;;;;;;;4985664;28;20386;-72
2022/01/07 00:28:09;;;;;;;25.40;2.03;;;;;;;;;;4994926;28;20026;-74
2022/01/07 00:30:36;;;;;;;14.73;2.10;;;;;;;;;;4996385;28;20402;-73
2022/01/07 00:33:03;;;;;;;10.35;3.38;;;;;;;;;;4992379;28;20068;-74
2022/01/07 00:35:28;;;;;;;12.90;2.00;;;;;;;;;;4994908;28;20463;-74
2022/01/07 00:37:53;;;;;;;21.03;3.13;;;;;;;;;;4994120;28;20042;-74
2022/01/07 00:40:21;;;;;;;18.83;2.30;;;;;;;;;;4991392;28;20038;-74
2022/01/07 00:42:49;;;;;;;14.00;2.65;;;;;;;;;;5010061;28;20054;-75
2022/01/07 00:45:14;;;;;;;11.73;2.08;;;;;;;;;;4996163;28;20022;-75
2022/01/07 00:47:40;;;;;;;12.53;2.10;;;;;;;;;;4994558;28;20510;-75
2022/01/07 00:50:07;;;;;;;22.33;3.30;;;;;;;;;;4995460;28;20105;-74
2022/01/07 00:52:33;;;;;;;17.38;2.58;;;;;;;;;;5011103;28;20120;-72
2022/01/07 00:54:58;;;;;;;19.83;2.50;;;;;;;;;;4994385;28;20499;-72
2022/01/07 00:57:24;;;;;;;20.93;3.70;;;;;;;;;;4995871;28;20106;-72
2022/01/07 00:59:49;;;;;;;11.67;2.37;;;;;;;;;;5010911;28;20018;-73
2022/01/07 01:02:15;;;;;;;24.17;2.97;;;;;;;;;;4994549;28;20081;-74
2022/01/07 01:04:42;;;;;;;35.60;3.70;;;;;;;;;;5007449;28;20080;-75
2022/01/07 01:07:07;;;;;;;;;;;;;;;;;;5009905;28;20033;-74
2022/01/07 01:09:32;;;;;;;21.77;3.58;;;;;;;;;;4995373;28;19925;-74
2022/01/07 01:12:00;;;;;;;18.40;3.00;;;;;;;;;;4995510;28;20459;-74
2022/01/07 01:14:25;;;;;;;15.90;3.53;;;;;;;;;;4994020;28;20029;-72
2022/01/07 01:16:51;;;;;;;26.20;3.40;;;;;;;;;;4993310;28;20487;-72
2022/01/07 01:19:17;;;;;;;17.63;3.22;;;;;;;;;;4993975;28;20072;-71
2022/01/07 01:21:43;;;;;;;18.03;2.90;;;;;;;;;;5010493;28;20518;-71
2022/01/07 01:24:09;;;;;;;29.03;4.27;;;;;;;;;;4995093;28;20364;-73
2022/01/07 01:26:34;;;;;;;20.90;4.03;;;;;;;;;;4995168;28;20033;-71
2022/01/07 01:29:00;;;;;;;18.07;2.70;;;;;;;;;;5009959;28;20031;-73
2022/01/07 01:31:26;;;;;;;11.07;2.33;;;;;;;;;;5010171;28;20080;-74
2022/01/07 01:33:52;;;;;;;18.97;2.30;;;;;;;;;;4995064;28;20442;-74
2022/01/07 01:36:18;;;;;;;19.33;3.60;;;;;;;;;;4994975;28;20093;-74
2022/01/07 01:38:43;;;;;;;6.15;1.63;;;;;;;;;;5009808;28;20066;-74
2022/01/07 01:41:10;;;;;;;15.13;2.07;;;;;;;;;;5010084;28;20027;-73
2022/01/07 01:43:36;;;;;;;;;;;;;;;;;;5010394;28;20018;-71
2022/01/07 01:46:01;;;;;;;10.35;1.33;;;;;;;;;;4993825;28;19920;-71
2022/01/07 01:48:27;;;;;;;6.53;1.07;;;;;;;;;;4986081;28;20030;-71
2022/01/07 01:50:55;;;;;;;14.17;1.80;;;;;;;;;;4987626;28;20026;-74
2022/01/07 01:53:20;;;;;;;9.35;1.88;;;;;;;;;;4993144;28;20121;-74
2022/01/07 01:55:46;;;;;;;10.07;2.30;;;;;;;;;;5009625;28;20110;-74
2022/01/07 01:58:15;;;;;;;15.53;3.57;;;;;;;;;;4987199;28;20466;-74
2022/01/07 02:00:40;;;;;;;9.85;2.22;;;;;;;;;;4994665;28;20291;-74
2022/01/07 02:03:06;;;;;;;13.07;2.47;;;;;;;;;;4976835;28;20035;-73
2022/01/07 02:05:32;;;;;;;14.73;1.73;;;;;;;;;;4984096;28;20368;-73
2022/01/07 02:07:58;;;;;;;11.85;1.10;;;;;;;;;;4989257;28;20061;-71
2022/01/07 02:10:25;;;;;;;9.63;1.90;;;;;;;;;;4993322;28;20459;-71
2022/01/07 02:12:50;;;;;;;10.98;2.38;;;;;;;;;;4988384;28;20030;-71
2022/01/07 02:15:17;;;;;;;4.50;1.20;;;;;;;;;;4993871;28;20451;-71
2022/01/07 02:17:47;;;;;;;9.57;1.65;;;;;;;;;;4995023;28;20134;-71
2022/01/07 02:20:15;;;;;;;18.92;3.25;;;;;;;;;;4992659;28;20042;-71
2022/01/07 02:22:41;;;;;;;8.35;2.10;;;;;;;;;;4999431;28;20081;-71
2022/01/07 02:25:07;;;;;;;14.97;2.50;;;;;;;;;;4977238;28;20038;-71
2022/01/07 02:27:36;;;;;;;8.53;1.60;;;;;;;;;;4986517;28;20023;-71
2022/01/07 02:30:04;;;;;;;9.38;1.30;;;;;;;;;;4996019;28;20130;-73
2022/01/07 02:32:29;;;;;;;3.85;1.52;;;;;;;;;;4981674;28;20062;-71
2022/01/07 02:34:55;;;;;;;12.60;1.30;;;;;;;;;;4990411;28;20087;-71
2022/01/07 02:37:20;;;;;;;20.17;1.60;;;;;;;;;;4989989;28;20364;-71
2022/01/07 02:39:46;;;;;;;11.70;1.10;;;;;;;;;;4983677;28;20533;-71
2022/01/07 02:42:11;;;;;;;10.17;1.50;;;;;;;;;;4991029;28;20464;-71
2022/01/07 02:44:37;;;;;;;6.43;1.60;;;;;;;;;;4984787;28;20026;-71
2022/01/07 02:47:02;;;;;;;9.13;1.53;;;;;;;;;;4993925;28;20026;-72
2022/01/07 02:49:28;;;;;;;14.13;2.10;;;;;;;;;;4989939;28;20079;-71
2022/01/07 02:51:54;;;;;;;11.07;1.50;;;;;;;;;;4987709;28;20045;-71
2022/01/07 02:54:19;;;;;;;14.77;1.63;;;;;;;;;;4983686;28;20026;-71
2022/01/07 02:56:44;;;;;;;8.23;1.33;;;;;;;;;;4977074;28;20046;-71
2022/01/07 02:59:10;;;;;;;8.83;1.10;;;;;;;;;;4993621;28;20077;-71
2022/01/07 03:01:37;;;;;;;10.23;1.50;;;;;;;;;;4987076;28;20045;-72
2022/01/07 03:04:04;;;;;;;13.75;1.58;;;;;;;;;;4993524;28;20155;-71
2022/01/07 03:06:29;;;;;;;5.40;1.70;;;;;;;;;;4994812;28;20411;-71
2022/01/07 03:08:55;;;;;;;17.90;3.20;;;;;;;;;;5006039;28;20037;-71
2022/01/07 03:11:22;;;;;;;10.10;1.30;;;;;;;;;;4989982;28;20352;-71
2022/01/07 03:13:48;;;;;;;15.23;2.38;;;;;;;;;;4984874;28;20554;-71
2022/01/07 03:16:13;;;;;;;16.33;1.93;;;;;;;;;;4985726;28;20062;-71
2022/01/07 03:18:39;;;;;;;10.23;1.93;;;;;;;;;;5001063;28;20383;-71
2022/01/07 03:21:05;;;;;;;8.60;1.37;;;;;;;;;;4989208;28;20154;-71
2022/01/07 03:23:31;;;;;;;12.60;1.40;;;;;;;;;;4984456;28;20125;-71
2022/01/07 03:25:57;;;;;;;10.70;2.17;;;;;;;;;;4996846;28;20109;-71
2022/01/07 03:28:22;;;;;;;10.77;1.08;;;;;;;;;;4997141;28;20495;-71
2022/01/07 03:30:48;;;;;;;11.23;1.63;;;;;;;;;;4997411;28;20109;-71
2022/01/07 03:33:14;;;;;;;11.20;1.45;;;;;;;;;;4995145;28;20038;-71
2022/01/07 03:35:40;;;;;;;5.37;1.23;;;;;;;;;;5000316;28;20089;-71
2022/01/07 03:38:06;;;;;;;8.13;2.10;;;;;;;;;;4992561;28;20026;-71
2022/01/07 03:40:31;;;;;;;8.40;1.17;;;;;;;;;;5008502;28;20035;-71
2022/01/07 03:42:57;;;;;;;17.27;1.60;;;;;;;;;;4991482;28;20038;-71
2022/01/07 03:45:23;;;;;;;14.20;1.20;;;;;;;;;;4997303;28;20038;-71
2022/01/07 03:47:49;;;;;;;14.33;0.83;;;;;;;;;;4997037;28;20069;-71
2022/01/07 03:50:16;;;;;;;9.90;1.20;;;;;;;;;;5009681;28;20038;-71
2022/01/07 03:52:42;;;;;;;6.82;1.70;;;;;;;;;;4991923;28;20100;-71
2022/01/07 03:55:11;;;;;;;14.87;1.53;;;;;;;;;;4994875;28;20038;-71
2022/01/07 03:57:36;;;;;;;13.00;1.33;;;;;;;;;;4993780;28;20045;-70
2022/01/07 04:00:07;;;;;;;10.47;0.90;;;;;;;;;;4992989;28;20471;-71
2022/01/07 04:02:33;;;;;;;24.05;2.72;;;;;;;;;;4994456;28;20089;-71
2022/01/07 04:04:58;;;;;;;44.47;3.20;;;;;;;;;;4996907;28;20046;-70
2022/01/07 04:07:24;;;;;;;8.53;1.13;;;;;;;;;;5001069;28;20057;-71
2022/01/07 04:09:49;;;;;;;5.60;1.40;;;;;;;;;;4996862;28;20041;-71
2022/01/07 04:12:14;;;;;;;7.30;1.27;;;;;;;;;;4994451;28;20046;-71
2022/01/07 04:14:40;;;;;;;12.17;1.43;;;;;;;;;;4990992;28;20026;-71
2022/01/07 04:17:07;;;;;;;17.90;2.37;;;;;;;;;;4983156;28;20038;-71
2022/01/07 04:19:33;;;;;;;15.75;2.70;;;;;;;;;;4995316;28;20038;-70
2022/01/07 04:21:59;;;;;;;15.43;2.03;;;;;;;;;;4996748;28;20031;-71
2022/01/07 04:24:24;;;;;;;16.77;1.80;;;;;;;;;;4996495;28;20053;-70
2022/01/07 04:26:50;;;;;;;8.90;2.40;;;;;;;;;;5011636;28;20081;-71
2022/01/07 04:29:15;;;;;;;15.27;1.50;;;;;;;;;;4993187;28;20109;-71
2022/01/07 04:31:40;;;;;;;9.30;1.63;;;;;;;;;;4996375;28;20069;-71
2022/01/07 04:34:06;;;;;;;8.53;1.23;;;;;;;;;;4996147;28;20391;-71
2022/01/07 04:36:31;;;;;;;12.60;1.43;;;;;;;;;;4995989;28;20027;-70
2022/01/07 04:38:57;;;;;;;7.97;1.37;;;;;;;;;;4979214;28;20452;-70
2022/01/07 04:41:22;;;;;;;16.63;2.90;;;;;;;;;;4977695;28;20039;-71
2022/01/07 04:43:48;;;;;;;14.97;1.50;;;;;;;;;;4991762;28;20094;-71
2022/01/07 04:46:14;;;;;;;16.50;2.85;;;;;;;;;;4992704;28;20019;-71
2022/01/07 04:48:39;;;;;;;16.43;1.70;;;;;;;;;;4988969;28;20122;-71
2022/01/07 04:51:05;;;;;;;5.17;1.50;;;;;;;;;;4989126;28;20027;-71
2022/01/07 04:53:30;;;;;;;7.23;1.60;;;;;;;;;;4984607;28;20391;-72
2022/01/07 04:55:58;;;;;;;13.60;2.07;;;;;;;;;;4984941;28;20408;-71
2022/01/07 04:58:24;;;;;;;11.07;1.70;;;;;;;;;;4986131;28;20541;-71
2022/01/07 05:00:50;;;;;;;9.70;2.37;;;;;;;;;;4997517;28;20023;-73
2022/01/07 05:03:15;;;;;;;16.37;1.40;;;;;;;;;;5010633;28;20049;-73
2022/01/07 05:05:44;;;;;;;10.40;1.70;;;;;;;;;;4995867;28;20134;-73
2022/01/07 05:08:09;;;;;;;12.02;1.63;;;;;;;;;;4980081;28;20078;-74
2022/01/07 05:10:37;;;;;;;9.43;2.23;;;;;;;;;;4989633;28;20038;-73
2022/01/07 05:13:02;;;;;;;18.92;1.50;;;;;;;;;;4995378;28;20073;-70
2022/01/07 05:15:28;;;;;;;9.20;1.63;;;;;;;;;;4983981;28;20034;-70
2022/01/07 05:17:53;;;;;;;18.93;4.20;;;;;;;;;;4994075;28;20483;-71
2022/01/07 05:20:18;;;;;;;15.20;1.93;;;;;;;;;;4986716;28;20034;-70
2022/01/07 05:22:44;;;;;;;11.33;1.80;;;;;;;;;;4990088;28;20485;-72
2022/01/07 05:25:11;;;;;;;19.27;2.10;;;;;;;;;;5007612;28;20042;-73
2022/01/07 05:27:37;;;;;;;14.30;2.35;;;;;;;;;;4980584;28;20034;-71
2022/01/07 05:30:05;;;;;;;9.43;1.50;;;;;;;;;;4987525;28;20026;-70
2022/01/07 05:32:31;;;;;;;13.40;1.77;;;;;;;;;;4981865;28;20045;-70
2022/01/07 05:34:56;;;;;;;14.17;1.73;;;;;;;;;;4989963;28;20468;-70
2022/01/07 05:37:21;;;;;;;25.50;3.27;;;;;;;;;;4991459;28;20034;-70
2022/01/07 05:39:47;;;;;;;12.03;1.90;;;;;;;;;;4985919;28;20045;-71
2022/01/07 05:42:12;;;;;;;14.33;1.50;;;;;;;;;;4998596;28;20060;-70
2022/01/07 05:44:38;;;;;;;25.57;2.00;;;;;;;;;;4989124;28;20069;-70
2022/01/07 05:47:04;;;;;;;12.57;1.70;;;;;;;;;;4994469;28;20045;-71
2022/01/07 05:49:29;;;;;;;9.63;2.13;;;;;;;;;;4993402;28;20041;-70
2022/01/07 05:51:55;;;;;;;17.67;2.60;;;;;;;;;;4991173;28;20046;-70
2022/01/07 05:54:20;;;;;;;10.20;1.87;;;;;;;;;;4988165;28;20084;-71
2022/01/07 05:56:45;;;;;;;19.30;2.73;;;;;;;;;;4989678;28;20031;-71
2022/01/07 05:59:11;;;;;;;19.40;2.70;;;;;;;;;;4987438;28;20424;-71
2022/01/07 06:01:37;;;;;;;8.87;1.40;;;;;;;;;;5004026;28;20050;-73
2022/01/07 06:04:02;;;;;;;11.98;1.50;;;;;;;;;;4994904;28;20049;-73
2022/01/07 06:06:28;;;;;;;21.83;2.07;;;;;;;;;;4989000;28;20463;-74
2022/01/07 06:08:53;;;;;;;13.33;1.60;;;;;;;;;;4985683;28;20134;-73
2022/01/07 06:11:19;;;;;;;12.27;2.23;;;;;;;;;;4974277;28;20030;-73
2022/01/07 06:13:44;;;;;;;14.37;1.83;;;;;;;;;;4994562;28;20036;-72
2022/01/07 06:16:09;;;;;;;10.33;1.60;;;;;;;;;;4993496;28;20038;-71
2022/01/07 06:18:39;;;;;;;6.20;1.57;;;;;;;;;;4980120;28;20030;-71
2022/01/07 06:21:05;;;;;;;11.15;1.55;;;;;;;;;;4994201;28;20026;-70
2022/01/07 06:23:30;;;;;;;13.23;2.73;;;;;;;;;;4994322;28;20132;-70
2022/01/07 06:25:55;;;;;;;6.27;1.50;;;;;;;;;;4987032;28;20030;-71
2022/01/07 06:28:21;;;;;;;18.40;2.77;;;;;;;;;;4987023;28;20042;-70
2022/01/07 06:30:46;;;;;;;9.73;2.13;;;;;;;;;;4984027;28;20109;-72
2022/01/07 06:33:12;;;;;;;17.67;1.87;;;;;;;;;;4992899;28;20023;-72
2022/01/07 06:35:37;;;;;;;14.70;1.57;;;;;;;;;;4988045;28;20030;-71
2022/01/07 06:38:04;;;;;;;10.37;2.80;;;;;;;;;;4986627;28;20042;-71
2022/01/07 06:40:29;;;;;;;15.07;2.35;;;;;;;;;;4981710;28;20026;-71
2022/01/07 06:42:54;;;;;;;9.10;1.77;;;;;;;;;;4989474;28;20026;-72
2022/01/07 06:45:20;;;;;;;10.37;2.10;;;;;;;;;;4992544;28;20404;-71
2022/01/07 06:47:45;;;;;;;17.57;3.03;;;;;;;;;;4991253;28;20054;-74
2022/01/07 06:50:12;;;;;;;11.43;1.97;;;;;;;;;;4993104;28;20061;-73
2022/01/07 06:52:37;;;;;;;;;;;;;;;;;;4999016;28;20034;-72
2022/01/07 06:55:03;;;;;;;14.25;2.05;;;;;;;;;;4989167;28;21716;-72
2022/01/07 06:57:29;;;;;;;11.33;2.70;;;;;;;;;;5005274;28;20118;-71
2022/01/07 06:59:54;;;;;;;15.50;2.97;;;;;;;;;;4992343;28;20729;-71
2022/01/07 07:02:20;;;;;;;19.47;2.70;;;;;;;;;;4985014;28;20038;-71
2022/01/07 07:04:46;;;;;;;16.37;3.10;;;;;;;;;;4992713;28;20034;-72
2022/01/07 07:07:13;;;;;;;12.90;2.40;;;;;;;;;;4976877;28;20039;-72
2022/01/07 07:09:38;;;;;;;16.55;3.63;;;;;;;;;;4976303;28;20041;-72
2022/01/07 07:12:04;;;;;;;13.93;2.30;;;;;;;;;;4992475;28;20030;-72
2022/01/07 07:14:30;;;;;;;9.90;2.30;;;;;;;;;;4991619;28;20046;-72
2022/01/07 07:16:55;;;;;;;35.67;4.43;;;;;;;;;;4991644;28;20030;-72
2022/01/07 07:19:22;;;;;;;12.80;2.70;;;;;;;;;;4991319;28;20113;-72
2022/01/07 07:21:47;;;;;;;;;;;;;;;;;;4992840;28;20034;-72
2022/01/07 07:24:13;;;;;;;13.95;2.30;;;;;;;;;;4992642;28;19975;-72
2022/01/07 07:26:38;;;;;;;20.53;2.90;;;;;;;;;;4985830;28;20030;-72
2022/01/07 07:29:04;;;;;;;17.70;2.70;;;;;;;;;;4992439;28;20039;-72
2022/01/07 07:31:30;;;;;;;25.73;3.10;;;;;;;;;;4988014;28;20073;-72
2022/01/07 07:34:18;;;;;;;9.00;1.50;;;;;;;;;;4979250;28;20031;-74
2022/01/07 07:36:44;;;;;;;3.83;1.15;;;;;;;;;;4979798;28;20058;-74
2022/01/07 07:39:10;;;;;;;9.68;2.00;;;;;;;;;;4993358;28;20117;-75
2022/01/07 07:41:38;;;;;;;10.25;2.45;;;;;;;;;;4993406;28;20041;-74
2022/01/07 07:44:04;;;;;;;10.95;1.77;;;;;;;;;;4990990;28;20089;-71
2022/01/07 07:46:32;;;;;;;7.20;1.85;;;;;;;;;;4982816;28;20031;-73
2022/01/07 07:49:00;;;;;;;5.00;1.30;;;;;;;;;;4980327;28;20039;-72
2022/01/07 07:51:26;;;;;;;8.77;1.27;;;;;;;;;;4989686;28;20034;-72
2022/01/07 07:53:51;;;;;;;14.30;1.38;;;;;;;;;;4976510;28;20690;-73
2022/01/07 07:56:17;;;;;;;7.93;1.40;;;;;;;;;;4986459;28;20054;-72
2022/01/07 07:58:44;;;;;;;19.93;2.00;;;;;;;;;;4987353;28;20038;-72
2022/01/07 08:01:10;;;;;;;11.73;2.30;;;;;;;;;;4987331;28;20034;-73
2022/01/07 08:03:35;;;;;;;10.85;1.33;;;;;;;;;;5001216;28;20411;-73
2022/01/07 08:06:01;;;;;;;12.63;1.60;;;;;;;;;;4984072;28;20038;-71
2022/01/07 08:08:27;;;;;;;11.50;1.40;;;;;;;;;;4981790;28;20121;-71
2022/01/07 08:10:56;;;;;;;12.15;1.42;;;;;;;;;;4994713;28;20538;-72
2022/01/07 08:13:28;;;;;;;7.47;1.23;;;;;;;;;;4981039;28;20034;-72
2022/01/07 08:16:01;;;;;;;5.65;1.40;;;;;;;;;;4984392;28;20039;-72
2022/01/07 08:18:31;;;;;;;4.95;0.80;;;;;;;;;;4992206;28;20053;-72
2022/01/07 08:21:00;;;;;;;9.32;1.48;;;;;;;;;;4983773;28;20030;-71
2022/01/07 08:23:25;;;;;;;11.27;1.38;;;;;;;;;;5011702;28;20047;-71
2022/01/07 08:25:51;;;;;;;7.37;0.80;;;;;;;;;;4989542;28;20150;-72
2022/01/07 08:28:17;;;;;;;8.23;1.30;;;;;;;;;;4985960;28;20061;-72
2022/01/07 08:36:13;;;;;;;7.25;1.02;;;;;;;;;;4981145;28;20513;-71
2022/01/07 08:38:38;;;;;;;8.65;2.25;;;;;;;;;;4984324;28;20113;-72
2022/01/07 08:41:05;;;;;;;3.90;1.30;;;;;;;;;;4990869;28;20114;-72
2022/01/07 08:43:30;;;;;;;7.82;1.27;;;;;;;;;;5001750;28;20121;-72
2022/01/07 08:45:56;;;;;;;9.10;1.73;;;;;;;;;;4995754;28;20475;-72
2022/01/07 08:48:21;;;;;;;5.83;1.00;;;;;;;;;;5005058;28;20361;-72
2022/01/07 08:50:47;;;;;;;4.73;0.77;;;;;;;;;;4974665;28;20034;-72
2022/01/07 08:53:13;;;;;;;8.30;1.20;;;;;;;;;;4994637;28;20458;-72
2022/01/07 08:55:38;;;;;;;7.47;1.57;;;;;;;;;;4984085;28;20046;-72
2022/01/07 08:58:06;;;;;;;11.03;1.53;;;;;;;;;;4984686;28;20437;-72
2022/01/07 09:00:32;;;;;;;5.93;1.02;;;;;;;;;;4992695;28;20080;-73
2022/01/07 09:02:58;;;;;;;4.45;1.20;;;;;;;;;;4997717;28;20039;-74
2022/01/07 09:05:23;;;;;;;9.03;1.57;;;;;;;;;;4990903;28;20076;-74
2022/01/07 09:07:49;;;;;;;6.47;1.40;;;;;;;;;;4979962;28;20113;-74
2022/01/07 09:10:14;;;;;;;4.63;1.07;;;;;;;;;;4976250;28;20046;-74
2022/01/07 09:12:40;;;;;;;5.57;1.03;;;;;;;;;;4987225;28;20026;-76
2022/01/07 09:15:06;;;;;;;3.97;1.02;;;;;;;;;;4990186;28;20396;-74
2022/01/07 09:17:32;;;;;;;7.17;1.20;;;;;;;;;;4990941;28;20043;-74
2022/01/07 09:19:59;;;;;;;1.77;0.70;;;;;;;;;;4984850;28;20275;-75
2022/01/07 09:22:24;;;;;;;3.42;1.27;;;;;;;;;;4992211;28;20141;-74
2022/01/07 09:24:50;;;;;;;4.60;0.97;;;;;;;;;;4968211;28;20149;-75
2022/01/07 09:27:15;;;;;;;1.97;0.70;;;;;;;;;;4976144;28;20041;-74
2022/01/07 09:29:40;;;;;;;3.43;1.20;;;;;;;;;;4975791;28;20059;-74
2022/01/07 09:32:06;;;;;;;6.43;0.90;;;;;;;;;;4991511;28;20126;-73
2022/01/07 09:34:32;;;;;;;4.43;0.70;;;;;;;;;;4998520;28;20030;-74
2022/01/07 09:36:58;;;;;;;5.88;1.10;;;;;;;;;;4998237;28;20497;-74
2022/01/07 09:39:24;;;;;;;4.30;1.07;;;;;;;;;;4971636;28;20170;-75
2022/01/07 09:41:49;;;;;;;3.37;1.07;;;;;;;;;;4984987;28;20030;-75
2022/01/07 09:44:15;;;;;;;3.23;1.00;;;;;;;;;;4991375;28;20026;-76
2022/01/07 09:46:40;;;;;;;3.37;1.47;;;;;;;;;;4993760;28;20045;-74
2022/01/07 09:49:07;;;;;;;9.63;1.67;;;;;;;;;;4996799;28;20386;-74
2022/01/07 09:51:32;;;;;;;7.13;1.73;;;;;;;;;;4974231;28;20039;-73
2022/01/07 09:54:03;;;;;;;4.47;1.10;;;;;;;;;;4977423;28;20113;-74
2022/01/07 09:56:28;;;;;;;4.45;1.10;;;;;;;;;;4981192;28;20085;-74
2022/01/07 09:58:53;;;;;;;7.73;2.10;;;;;;;;;;4988953;28;20022;-74
2022/01/07 10:01:20;;;;;;;4.10;1.20;;;;;;;;;;4975281;28;20394;-74
2022/01/07 10:03:45;;;;;;;3.67;1.30;;;;;;;;;;4979843;28;20026;-73
2022/01/07 10:06:22;;;;;;;12.73;2.53;;;;;;;;;;4993650;28;20039;-73
2022/01/07 10:09:12;;;;;;;6.10;1.52;;;;;;;;;;4988298;28;20030;-74
2022/01/07 10:11:37;;;;;;;5.95;1.52;;;;;;;;;;4984460;28;20035;-77
2022/01/07 10:14:21;;;;;;;9.17;1.13;;;;;;;;;;4981297;28;20442;-73
2022/01/07 10:16:58;;;;;;;6.00;1.70;;;;;;;;;;4971937;28;20042;-74
2022/01/07 10:19:29;;;;;;;3.17;1.20;;;;;;;;;;5006149;28;20117;-74
2022/01/07 10:22:21;;;;;;;6.13;1.20;;;;;;;;;;4990848;28;20022;-74
2022/01/07 10:25:00;;;;;;;5.05;0.80;;;;;;;;;;4987246;28;20050;-74
2022/01/07 10:27:37;;;;;;;12.77;1.95;;;;;;;;;;4965698;28;20157;-73
2022/01/07 10:30:18;;;;;;;16.90;1.90;;;;;;;;;;5006189;28;20034;-73
2022/01/07 10:32:45;;;;;;;7.28;1.17;;;;;;;;;;4989962;28;20030;-74
2022/01/07 10:35:14;;;;;;;4.03;1.60;;;;;;;;;;4985172;28;20046;-74
2022/01/07 10:37:55;;;;;;;3.08;1.25;;;;;;;;;;4989614;28;20042;-73
2022/01/07 10:40:34;;;;;;;5.78;1.40;;;;;;;;;;4969134;28;20488;-76
2022/01/07 10:43:17;;;;;;;5.93;1.45;;;;;;;;;;4990113;28;20105;-73
2022/01/07 10:45:50;;;;;;;3.58;1.35;;;;;;;;;;4989410;28;20104;-73
2022/01/07 10:48:17;;;;;;;3.58;0.70;;;;;;;;;;4973207;28;20440;-74
2022/01/07 10:50:45;;;;;;;5.22;1.00;;;;;;;;;;4989559;28;20312;-73
2022/01/07 10:53:17;;;;;;;6.07;1.23;;;;;;;;;;5005665;28;20065;-74
2022/01/07 10:56:05;;;;;;;4.30;1.80;;;;;;;;;;4990408;28;20116;-73
2022/01/07 10:58:49;;;;;;;3.13;1.67;;;;;;;;;;4990219;28;20034;-74
2022/01/07 11:01:20;;;;;;;5.40;1.27;;;;;;;;;;4990210;28;20411;-74
2022/01/07 11:03:51;;;;;;;3.55;1.05;;;;;;;;;;4989115;28;20093;-74
2022/01/07 11:06:17;;;;;;;4.88;1.00;;;;;;;;;;4990341;28;20045;-73
2022/01/07 11:08:42;;;;;;;11.43;1.10;;;;;;;;;;4987009;28;20034;-73
2022/01/07 11:11:08;;;;;;;5.97;1.40;;;;;;;;;;4990133;28;20030;-73
2022/01/07 11:13:35;;;;;;;6.25;1.25;;;;;;;;;;4977441;28;20406;-73
2022/01/07 11:16:02;;;;;;;11.32;1.80;;;;;;;;;;5005388;28;20039;-74
2022/01/07 11:18:27;;;;;;;6.18;1.42;;;;;;;;;;4988130;28;20790;-73
2022/01/07 11:20:57;;;;;;;3.97;0.93;;;;;;;;;;4990347;28;20077;-74
2022/01/07 11:23:25;;;;;;;6.80;1.33;;;;;;;;;;5004476;28;20348;-73
2022/01/07 11:26:00;;;;;;;9.68;1.33;;;;;;;;;;5004692;28;20494;-73
2022/01/07 11:28:26;;;;;;;10.73;1.30;;;;;;;;;;5004067;28;20708;-73
2022/01/07 11:31:14;;;;;;;7.17;1.57;;;;;;;;;;4990132;28;20097;-74
2022/01/07 11:33:40;;;;;;;10.57;2.03;;;;;;;;;;4978332;28;20121;-73
2022/01/07 11:36:33;;;;;;;7.75;0.93;;;;;;;;;;5005201;28;20477;-75
2022/01/07 11:39:03;;;;;;;7.45;1.35;;;;;;;;;;4973653;28;20053;-73
2022/01/07 11:41:50;;;;;;;5.43;2.15;;;;;;;;;;5004883;28;20056;-74
2022/01/07 11:44:29;;;;;;;2.63;1.13;;;;;;;;;;4990723;28;20034;-74
2022/01/07 11:47:13;;;;;;;4.65;1.08;;;;;;;;;;4992689;28;20049;-74
2022/01/07 11:49:39;;;;;;;10.80;2.10;;;;;;;;;;4993928;28;20113;-73
2022/01/07 11:52:33;;;;;;;11.73;2.08;;;;;;;;;;4996746;28;20101;-74
2022/01/07 11:55:36;;;;;;;3.92;1.00;;;;;;;;;;4977796;28;20087;-74
2022/01/07 11:58:07;;;;;;;4.55;1.10;;;;;;;;;;4995390;28;20026;-73
2022/01/07 12:00:56;;;;;;;11.82;1.48;;;;;;;;;;4976462;28;20495;-74
2022/01/07 12:03:33;;;;;;;9.05;1.38;;;;;;;;;;4972720;28;20391;-74
2022/01/07 12:06:20;;;;;;;7.25;1.52;;;;;;;;;;4973817;28;20035;-75
2022/01/07 12:08:57;;;;;;;12.93;3.35;;;;;;;;;;4969402;28;20045;-74
2022/01/07 12:11:23;;;;;;;;;;;;;;;;;;4989771;28;20370;-74
2022/01/07 12:13:49;;;;;;;9.52;2.75;;;;;;;;;;4984785;28;20382;-74
2022/01/07 12:16:19;;;;;;;10.23;1.40;;;;;;;;;;5003720;28;20050;-74
2022/01/07 12:18:44;;;;;;;4.68;1.27;;;;;;;;;;5005635;28;20471;-74
2022/01/07 12:21:11;;;;;;;3.97;2.20;;;;;;;;;;4992657;28;20038;-74
2022/01/07 12:23:37;;;;;;;7.03;1.83;;;;;;;;;;4989455;28;20514;-74
2022/01/07 12:26:03;;;;;;;13.50;2.10;;;;;;;;;;4989581;28;20113;-74
2022/01/07 12:28:36;;;;;;;7.07;1.33;;;;;;;;;;4986033;28;20494;-75
2022/01/07 12:31:09;;;;;;;9.27;3.03;;;;;;;;;;4992449;28;20034;-74
2022/01/07 12:33:38;;;;;;;6.43;2.03;;;;;;;;;;4988424;28;20026;-74
2022/01/07 12:36:04;;;;;;;10.52;1.90;;;;;;;;;;4989875;28;20077;-73
2022/01/07 12:38:29;;;;;;;7.77;1.03;;;;;;;;;;4997609;28;20026;-75
2022/01/07 12:40:57;;;;;;;5.30;1.70;;;;;;;;;;4983417;28;20276;-74
2022/01/07 12:43:30;;;;;;;4.65;0.93;;;;;;;;;;4990856;28;20030;-74
2022/01/07 12:46:00;;;;;;;9.32;1.45;;;;;;;;;;5005773;28;20093;-75
2022/01/07 12:48:35;;;;;;;10.57;2.88;;;;;;;;;;4974228;28;20089;-74
2022/01/07 12:51:04;;;;;;;8.35;1.48;;;;;;;;;;4989860;28;20093;-77
2022/01/07 12:53:30;;;;;;;10.35;2.10;;;;;;;;;;4971274;28;20537;-73
2022/01/07 12:55:55;;;;;;;11.33;2.03;;;;;;;;;;4997570;28;20161;-77
2022/01/07 12:58:27;;;;;;;15.27;2.03;;;;;;;;;;4990082;28;20081;-73
2022/01/07 13:00:53;;;;;;;5.07;1.25;;;;;;;;;;5004540;28;20045;-74
2022/01/07 13:03:25;;;;;;;8.33;2.00;;;;;;;;;;4987542;28;20034;-74
2022/01/07 13:05:50;;;;;;;7.50;2.03;;;;;;;;;;4989294;28;20049;-74
2022/01/07 13:08:17;;;;;;;4.13;1.80;;;;;;;;;;4985474;28;20034;-73
2022/01/07 13:10:47;;;;;;;;;;;;;;;;;;4990124;28;20034;-74
2022/01/07 13:13:19;;;;;;;3.72;1.40;;;;;;;;;;4980593;28;19941;-76
2022/01/07 13:15:55;;;;;;;6.38;1.52;;;;;;;;;;4989068;28;20035;-74
2022/01/07 13:18:31;;;;;;;4.50;1.90;;;;;;;;;;5005832;28;20414;-75
2022/01/07 13:21:06;;;;;;;8.95;3.42;;;;;;;;;;5002574;28;20034;-75
2022/01/07 13:23:50;;;;;;;22.88;8.35;;;;;;;;;;4991349;28;20053;-73
2022/01/07 13:26:17;;;;;;;10.65;3.90;;;;;;;;;;4993397;28;20066;-74
2022/01/07 13:28:44;;;;;;;7.93;2.28;;;;;;;;;;5006070;28;20038;-75
2022/01/07 13:31:11;;;;;;;5.18;2.78;;;;;;;;;;5006224;28;20034;-73
2022/01/07 13:33:38;;;;;;;4.93;1.63;;;;;;;;;;4983207;28;20547;-74
2022/01/07 13:36:06;;;;;;;10.85;1.48;;;;;;;;;;4987417;28;20080;-73
2022/01/07 13:38:33;;;;;;;3.17;1.15;;;;;;;;;;5006605;28;20455;-74
2022/01/07 13:41:10;;;;;;;5.45;0.80;;;;;;;;;;4986051;28;20038;-74
2022/01/07 13:43:46;;;;;;;3.20;0.80;;;;;;;;;;5000121;28;20039;-74
2022/01/07 13:46:23;;;;;;;4.50;0.90;;;;;;;;;;4978289;28;20525;-74
2022/01/07 13:48:51;;;;;;;3.92;0.95;;;;;;;;;;4988473;28;20035;-74
2022/01/07 13:51:17;;;;;;;2.45;0.80;;;;;;;;;;4965583;28;20038;-75
2022/01/07 13:53:43;;;;;;;4.00;0.70;;;;;;;;;;4965225;28;20049;-74
2022/01/07 13:56:09;;;;;;;3.47;0.50;;;;;;;;;;4960792;28;20153;-74
2022/01/07 13:58:35;;;;;;;2.22;0.80;;;;;;;;;;4979704;28;20113;-77
2022/01/07 14:01:05;;;;;;;5.20;1.20;;;;;;;;;;4980176;28;20532;-76
2022/01/07 14:03:47;;;;;;;3.40;1.50;;;;;;;;;;4965215;28;20039;-76
2022/01/07 14:06:17;;;;;;;3.47;1.38;;;;;;;;;;4960659;28;20081;-74
2022/01/07 14:08:43;;;;;;;1.85;0.70;;;;;;;;;;4979257;28;20031;-74
2022/01/07 14:11:16;;;;;;;0.97;0.43;;;;;;;;;;4978776;28;20751;-74
2022/01/07 14:13:42;;;;;;;1.70;0.43;;;;;;;;;;4978947;28;20035;-74
2022/01/07 14:16:07;;;;;;;4.40;1.20;;;;;;;;;;4975827;28;20138;-74
2022/01/07 14:18:37;;;;;;;2.17;0.50;;;;;;;;;;4964101;28;20031;-74
2022/01/07 14:21:04;;;;;;;3.22;2.20;;;;;;;;;;4964426;28;20054;-73
2022/01/07 14:23:36;;;;;;;2.45;1.00;;;;;;;;;;4979420;28;20061;-74
2022/01/07 14:26:04;;;;;;;2.85;1.20;;;;;;;;;;4975706;28;20038;-74
2022/01/07 14:28:30;;;;;;;1.70;0.85;;;;;;;;;;4965131;28;20047;-75
2022/01/07 14:30:56;;;;;;;2.03;0.90;;;;;;;;;;4963270;28;20027;-74
2022/01/07 14:33:21;;;;;;;2.50;0.90;;;;;;;;;;4963918;28;20593;-74
2022/01/07 14:35:47;;;;;;;6.13;1.53;;;;;;;;;;4960093;28;20093;-74
2022/01/07 14:38:14;;;;;;;4.57;1.67;;;;;;;;;;4980700;28;20030;-74
2022/01/07 14:40:41;;;;;;;4.43;1.30;;;;;;;;;;4964248;28;20077;-75
2022/01/07 14:43:07;;;;;;;4.30;1.70;;;;;;;;;;4964343;28;20904;-74
2022/01/07 14:45:33;;;;;;;2.93;1.00;;;;;;;;;;4974663;28;20105;-74
2022/01/07 14:47:58;;;;;;;3.63;0.90;;;;;;;;;;4960658;28;20125;-76